Time;durP1;ratioP1;P1;durP2;ratioP2;P2;SDS_P1;SDS_P2;PMS_P1;PMS_P2;Temp;Humidity;BMP_temperature;BMP_pressure;BME280_temperature;BME280_humidity;BME280_pressure;Samples;Min_cycle;Max_cycle;Signal;HPM_P1;HPM_P2
2023/12/19 00:00:11;;;;;;;33.13;16.60;;;;;;;5.06;100.00;101062.25;5034789;28;20082;-74
2023/12/19 00:02:37;;;;;;;30.55;15.95;;;;;;;5.06;100.00;101051.72;5034666;28;20359;-75
2023/12/19 00:05:03;;;;;;;29.92;16.95;;;;;;;5.07;100.00;101047.66;5034692;28;20041;-76
2023/12/19 00:07:30;;;;;;;31.67;16.55;;;;;;;5.05;100.00;101033.16;5051635;28;20166;-77
2023/12/19 00:09:55;;;;;;;29.58;15.55;;;;;;;5.08;100.00;101034.31;5053013;28;20090;-75
2023/12/19 00:12:22;;;;;;;31.70;16.60;;;;;;;5.13;100.00;101017.59;5053154;28;20049;-74
2023/12/19 00:14:47;;;;;;;26.42;14.18;;;;;;;5.17;100.00;101006.19;5054611;28;20028;-76
2023/12/19 00:17:13;;;;;;;25.20;14.27;;;;;;;5.28;100.00;101010.38;5054867;28;20021;-76
2023/12/19 00:19:39;;;;;;;28.35;13.23;;;;;;;5.33;100.00;100994.88;5054024;28;20437;-80
2023/12/19 00:22:04;;;;;;;23.50;13.93;;;;;;;5.35;100.00;100996.03;5052742;28;20048;-76
2023/12/19 00:24:31;;;;;;;25.40;13.63;;;;;;;5.38;100.00;100998.00;5054236;28;20033;-75
2023/12/19 00:26:56;;;;;;;29.08;12.80;;;;;;;5.42;100.00;100991.44;5054007;28;20083;-75
2023/12/19 00:29:22;;;;;;;24.35;12.85;;;;;;;5.47;100.00;100991.72;5053338;28;20020;-75
2023/12/19 00:31:51;;;;;;;25.30;12.90;;;;;;;5.56;100.00;100989.06;5051932;28;20017;-76
2023/12/19 00:34:19;;;;;;;28.08;13.23;;;;;;;5.65;100.00;100994.91;5052976;28;20027;-76
2023/12/19 00:36:45;;;;;;;25.10;12.30;;;;;;;5.74;100.00;101009.28;5053933;28;20028;-76
2023/12/19 00:39:11;;;;;;;25.08;12.63;;;;;;;5.81;100.00;101016.81;5052491;28;20039;-75
2023/12/19 00:41:37;;;;;;;27.10;14.15;;;;;;;5.87;100.00;101037.75;5052766;28;20025;-74
2023/12/19 00:44:03;;;;;;;26.25;12.95;;;;;;;5.92;100.00;101050.59;5054134;28;20424;-75
2023/12/19 00:46:29;;;;;;;30.08;13.15;;;;;;;5.97;100.00;101048.03;5054122;28;20064;-77
2023/12/19 00:48:56;;;;;;;23.52;12.55;;;;;;;6.01;100.00;101039.41;5053906;28;20024;-75
2023/12/19 00:51:24;;;;;;;23.83;13.00;;;;;;;6.05;100.00;101048.63;5053705;28;20020;-76
2023/12/19 00:53:49;;;;;;;28.20;13.13;;;;;;;6.04;100.00;101053.50;5053401;28;20064;-75
2023/12/19 00:56:15;;;;;;;24.45;13.85;;;;;;;6.06;100.00;101062.38;5053333;28;20028;-76
2023/12/19 00:58:43;;;;;;;26.10;13.38;;;;;;;6.12;100.00;101065.47;5053618;28;20040;-76
2023/12/19 01:01:08;;;;;;;22.15;12.25;;;;;;;6.06;100.00;101050.22;5052384;28;20540;-76
2023/12/19 01:03:34;;;;;;;28.65;13.75;;;;;;;6.15;100.00;101059.72;5053594;28;20066;-77
2023/12/19 01:06:03;;;;;;;26.42;12.88;;;;;;;6.21;100.00;101062.81;5052337;28;20029;-75
2023/12/19 01:08:30;;;;;;;23.63;13.00;;;;;;;6.25;100.00;101061.47;5051636;28;20033;-76
2023/12/19 01:10:55;;;;;;;28.08;12.93;;;;;;;6.29;100.00;101055.72;5055519;28;20033;-78
2023/12/19 01:13:22;;;;;;;26.40;13.38;;;;;;;6.36;100.00;101049.88;5072386;28;20051;-78
2023/12/19 01:15:49;;;;;;;21.33;12.35;;;;;;;6.38;100.00;101030.38;5058456;28;20020;-79
2023/12/19 01:18:14;;;;;;;23.75;12.60;;;;;;;6.43;100.00;101021.31;5059125;28;20036;-79
2023/12/19 01:20:41;;;;;;;23.20;13.13;;;;;;;6.47;100.00;101009.88;5058984;28;20129;-78
2023/12/19 01:23:07;;;;;;;21.90;12.68;;;;;;;6.48;100.00;101015.09;5077014;28;20024;-79
2023/12/19 01:25:34;;;;;;;26.02;12.40;;;;;;;6.52;100.00;101018.63;5076539;28;20025;-78
2023/12/19 01:28:00;;;;;;;21.98;12.43;;;;;;;6.55;100.00;101023.41;5075713;28;20086;-79
2023/12/19 01:30:26;;;;;;;28.17;11.85;;;;;;;6.61;100.00;101013.09;5075002;28;20025;-80
2023/12/19 01:32:53;;;;;;;25.08;12.10;;;;;;;6.67;100.00;101013.34;5068219;28;20029;-78
2023/12/19 01:35:19;;;;;;;28.02;11.98;;;;;;;6.68;100.00;101012.88;5066280;28;20458;-78
2023/12/19 01:37:46;;;;;;;25.63;12.43;;;;;;;6.68;100.00;101023.47;5068087;28;20051;-79
2023/12/19 01:40:13;;;;;;;28.30;13.20;;;;;;;6.66;100.00;101018.25;5068292;28;20036;-80
2023/12/19 01:42:39;;;;;;;25.17;13.40;;;;;;;6.65;100.00;101010.97;5064800;28;20024;-79
2023/12/19 01:45:10;;;;;;;25.52;12.45;;;;;;;6.68;100.00;101011.31;5060967;28;20075;-77
2023/12/19 01:47:43;;;;;;;29.45;13.57;;;;;;;6.71;100.00;101001.88;5061427;28;20021;-80
2023/12/19 01:50:14;;;;;;;21.02;11.50;;;;;;;6.71;100.00;100999.84;5058702;28;20049;-80
2023/12/19 01:52:46;;;;;;;26.00;12.45;;;;;;;6.72;100.00;100983.59;5041413;28;20147;-79
2023/12/19 01:55:14;;;;;;;26.02;12.65;;;;;;;6.70;100.00;100969.84;5053264;28;20033;-78
2023/12/19 01:57:41;;;;;;;21.80;12.55;;;;;;;6.73;100.00;100968.16;5053263;28;20025;-78
2023/12/19 02:00:08;;;;;;;23.98;13.10;;;;;;;6.73;100.00;100974.66;5052962;28;20028;-79
2023/12/19 02:02:34;;;;;;;24.80;13.15;;;;;;;6.79;100.00;100980.53;5056385;28;20041;-79
2023/12/19 02:05:00;;;;;;;19.77;11.85;;;;;;;6.85;100.00;100975.91;5056681;28;20335;-79
2023/12/19 02:07:28;;;;;;;21.23;11.18;;;;;;;6.89;100.00;100965.22;5061150;28;20104;-79
2023/12/19 02:09:53;;;;;;;19.92;11.05;;;;;;;6.93;100.00;100978.06;5063264;28;20076;-79
2023/12/19 02:12:21;;;;;;;23.13;11.75;;;;;;;6.95;100.00;100978.44;5061567;28;20029;-79
2023/12/19 02:14:49;;;;;;;24.17;13.00;;;;;;;6.95;100.00;100984.13;5060654;28;20025;-79
2023/12/19 02:17:16;;;;;;;28.77;12.77;;;;;;;6.90;100.00;100987.50;5065639;28;20017;-80
2023/12/19 02:19:55;;;;;;;21.75;11.93;;;;;;;6.85;100.00;100998.63;5064473;28;20024;-79
2023/12/19 02:22:21;;;;;;;24.67;12.82;;;;;;;6.73;100.00;100999.41;5068655;28;20041;-79
2023/12/19 02:24:47;;;;;;;24.98;12.35;;;;;;;6.63;100.00;100989.94;5067870;28;20037;-78
2023/12/19 02:27:14;;;;;;;20.35;10.88;;;;;;;6.52;100.00;100986.59;5064130;28;20119;-79
2023/12/19 02:29:40;;;;;;;19.30;11.05;;;;;;;6.45;100.00;100967.72;5059201;28;20499;-78
2023/12/19 02:32:06;;;;;;;22.15;10.80;;;;;;;6.50;100.00;100960.69;5063370;28;20037;-78
2023/12/19 02:34:31;;;;;;;18.75;9.63;;;;;;;6.54;100.00;100950.03;5046100;28;20055;-78
2023/12/19 02:36:57;;;;;;;19.42;10.20;;;;;;;6.62;100.00;100952.25;5065144;28;20082;-79
2023/12/19 02:39:24;;;;;;;19.67;10.93;;;;;;;6.64;100.00;100948.94;5065482;28;20029;-79
2023/12/19 02:41:49;;;;;;;19.42;9.95;;;;;;;6.75;100.00;100960.78;5071416;28;20428;-79
2023/12/19 02:44:15;;;;;;;18.83;9.52;;;;;;;6.81;100.00;100953.31;5070727;28;20025;-80
2023/12/19 02:46:40;;;;;;;21.17;10.55;;;;;;;6.85;100.00;100953.19;5071078;28;20033;-80
2023/12/19 02:49:06;;;;;;;19.25;9.30;;;;;;;6.87;100.00;100957.19;5070328;28;20025;-79
2023/12/19 02:51:31;;;;;;;18.88;10.10;;;;;;;6.85;100.00;100953.97;5071863;28;20032;-80
2023/12/19 02:53:57;;;;;;;22.80;9.98;;;;;;;6.80;100.00;100942.38;5069114;28;20623;-79
2023/12/19 02:56:25;;;;;;;16.35;9.02;;;;;;;6.71;100.00;100947.94;5056474;28;20037;-78
2023/12/19 02:58:51;;;;;;;15.60;8.90;;;;;;;6.60;100.00;100937.69;5060043;28;20033;-80
2023/12/19 03:01:17;;;;;;;20.45;9.20;;;;;;;6.56;100.00;100924.84;5063894;28;20025;-78
2023/12/19 03:03:43;;;;;;;15.30;8.13;;;;;;;6.54;100.00;100928.13;5063014;28;20052;-78
2023/12/19 03:06:09;;;;;;;21.42;8.93;;;;;;;6.53;100.00;100928.59;5066927;28;20029;-79
2023/12/19 03:08:35;;;;;;;15.15;8.23;;;;;;;6.51;100.00;100931.88;5072432;28;20040;-78
2023/12/19 03:11:01;;;;;;;13.30;7.72;;;;;;;6.51;100.00;100926.19;5060760;28;20033;-79
2023/12/19 03:13:27;;;;;;;15.43;7.93;;;;;;;6.50;100.00;100916.06;5056159;28;20120;-80
2023/12/19 03:15:54;;;;;;;15.25;8.40;;;;;;;6.48;100.00;100910.06;5039389;28;20037;-78
2023/12/19 03:18:24;;;;;;;14.80;8.70;;;;;;;6.58;100.00;100919.50;5062620;28;20025;-78
2023/12/19 03:20:53;;;;;;;14.25;7.55;;;;;;;6.62;100.00;100906.81;5064268;28;20128;-79
2023/12/19 03:23:20;;;;;;;14.77;7.95;;;;;;;6.68;100.00;100903.41;5047922;28;20035;-79
2023/12/19 03:25:45;;;;;;;15.10;8.20;;;;;;;6.72;100.00;100912.59;5063611;28;20104;-79
2023/12/19 03:28:11;;;;;;;14.63;8.57;;;;;;;6.75;100.00;100909.66;5058799;28;20106;-78
2023/12/19 03:30:36;;;;;;;18.50;9.38;;;;;;;6.75;100.00;100921.00;5054821;28;20037;-78
2023/12/19 03:33:02;;;;;;;20.13;10.30;;;;;;;6.72;100.00;100921.94;5054769;28;20041;-78
2023/12/19 03:35:29;;;;;;;22.90;10.20;;;;;;;6.66;100.00;100918.03;5055279;28;20029;-79
2023/12/19 03:37:55;;;;;;;18.35;10.38;;;;;;;6.56;100.00;100919.16;5057520;28;20043;-79
2023/12/19 03:40:22;;;;;;;18.15;10.63;;;;;;;6.47;100.00;100921.84;5038469;28;20024;-79
2023/12/19 03:42:48;;;;;;;16.35;9.23;;;;;;;6.39;100.00;100932.59;5041443;28;20417;-78
2023/12/19 03:45:13;;;;;;;15.65;9.77;;;;;;;6.31;100.00;100919.06;5060354;28;20517;-78
2023/12/19 03:47:39;;;;;;;18.98;10.35;;;;;;;6.19;100.00;100912.06;5063497;28;20065;-79
2023/12/19 03:50:07;;;;;;;15.63;8.38;;;;;;;6.13;100.00;100899.69;5062640;28;20036;-79
2023/12/19 03:52:32;;;;;;;13.20;7.82;;;;;;;6.10;100.00;100903.41;5061649;28;20163;-79
2023/12/19 03:54:59;;;;;;;12.48;7.85;;;;;;;6.11;100.00;100905.00;5067996;28;20029;-80
2023/12/19 03:57:26;;;;;;;15.18;7.40;;;;;;;6.13;100.00;100905.38;5069109;28;20052;-79
2023/12/19 03:59:52;;;;;;;13.32;7.40;;;;;;;6.12;100.00;100898.88;5069388;28;20478;-78
2023/12/19 04:02:18;;;;;;;11.30;7.07;;;;;;;6.11;100.00;100905.00;5053920;28;20032;-79
2023/12/19 04:04:45;;;;;;;12.43;6.65;;;;;;;6.10;100.00;100914.75;5074054;28;20033;-79
2023/12/19 04:07:12;;;;;;;18.05;8.02;;;;;;;6.11;100.00;100916.34;5073041;28;20060;-78
2023/12/19 04:09:38;;;;;;;12.95;6.50;;;;;;;6.11;100.00;100924.88;5070227;28;20029;-79
2023/12/19 04:12:04;;;;;;;14.52;6.80;;;;;;;6.15;100.00;100926.34;5068935;28;20025;-78
2023/12/19 04:14:31;;;;;;;15.20;6.43;;;;;;;6.19;100.00;100931.94;5061255;28;20021;-79
2023/12/19 04:16:57;;;;;;;11.23;7.00;;;;;;;6.21;100.00;100930.25;5060204;28;20051;-79
2023/12/19 04:19:23;;;;;;;14.85;7.22;;;;;;;6.27;100.00;100921.19;5060268;28;20041;-80
2023/12/19 04:21:50;;;;;;;10.93;7.03;;;;;;;6.34;100.00;100916.13;5065784;28;20049;-78
2023/12/19 04:24:16;;;;;;;14.13;6.60;;;;;;;6.47;100.00;100914.16;5066803;28;20088;-79
2023/12/19 04:26:42;;;;;;;12.60;6.38;;;;;;;6.63;100.00;100904.75;5048098;28;20353;-80
2023/12/19 04:29:09;;;;;;;10.63;6.70;;;;;;;6.73;100.00;100908.53;5064186;28;20029;-80
2023/12/19 04:31:34;;;;;;;13.07;6.47;;;;;;;6.81;100.00;100907.06;5063537;28;20024;-79
2023/12/19 04:34:02;;;;;;;11.38;6.53;;;;;;;6.90;100.00;100907.97;5043712;28;20025;-79
2023/12/19 04:36:29;;;;;;;14.52;6.75;;;;;;;7.00;100.00;100906.03;5065170;28;20489;-78
2023/12/19 04:38:54;;;;;;;9.90;5.85;;;;;;;7.05;100.00;100896.97;5047684;28;20025;-78
2023/12/19 04:41:21;;;;;;;10.05;6.00;;;;;;;7.12;100.00;100907.31;5059890;28;20050;-79
2023/12/19 04:43:46;;;;;;;10.27;5.68;;;;;;;7.17;100.00;100901.06;5059321;28;20070;-79
2023/12/19 04:46:13;;;;;;;16.92;7.88;;;;;;;7.25;100.00;100903.22;5059365;28;20079;-79
2023/12/19 04:48:42;;;;;;;14.77;7.93;;;;;;;7.29;100.00;100900.25;5062736;28;20029;-79
2023/12/19 04:51:10;;;;;;;12.40;6.18;;;;;;;7.29;100.00;100901.03;5062539;28;20023;-78
2023/12/19 04:53:36;;;;;;;11.98;6.70;;;;;;;7.31;100.00;100895.72;5044494;28;20511;-79
2023/12/19 04:56:02;;;;;;;11.40;6.68;;;;;;;7.29;100.00;100894.56;5062953;28;20028;-78
2023/12/19 04:58:27;;;;;;;15.15;6.60;;;;;;;7.26;100.00;100881.28;5059453;28;20439;-79
2023/12/19 05:00:53;;;;;;;12.98;6.68;;;;;;;7.23;100.00;100888.66;5058597;28;20414;-79
2023/12/19 05:03:18;;;;;;;10.43;6.57;;;;;;;7.21;100.00;100881.84;5060349;28;20043;-79
2023/12/19 05:05:45;;;;;;;14.23;6.82;;;;;;;7.23;100.00;100885.00;5063119;28;20089;-78
2023/12/19 05:08:11;;;;;;;11.15;6.40;;;;;;;7.24;100.00;100875.25;5067658;28;20037;-79
2023/12/19 05:10:37;;;;;;;11.63;6.60;;;;;;;7.25;100.00;100874.00;5065590;28;20065;-80
2023/12/19 05:13:05;;;;;;;14.65;6.18;;;;;;;7.21;100.00;100879.81;5064502;28;20033;-79
2023/12/19 05:15:32;;;;;;;8.48;5.57;;;;;;;7.15;100.00;100887.31;5058458;28;20470;-79
2023/12/19 05:17:58;;;;;;;14.38;6.38;;;;;;;7.03;100.00;100885.25;5056184;28;20035;-79
2023/12/19 05:20:25;;;;;;;10.93;5.93;;;;;;;6.92;100.00;100888.44;5055669;28;20044;-78
2023/12/19 05:22:50;;;;;;;12.00;6.95;;;;;;;6.79;100.00;100895.34;5057178;28;20047;-79
2023/12/19 05:25:17;;;;;;;10.95;6.05;;;;;;;6.66;100.00;100898.97;5057779;28;20029;-81
2023/12/19 05:27:43;;;;;;;9.35;5.40;;;;;;;6.55;100.00;100887.13;5062485;28;20121;-79
2023/12/19 05:30:12;;;;;;;10.82;5.97;;;;;;;6.43;100.00;100885.06;5063208;28;20025;-80
2023/12/19 05:32:39;;;;;;;11.32;6.43;;;;;;;6.39;100.00;100877.88;5069979;28;20035;-79
2023/12/19 05:35:07;;;;;;;13.25;6.35;;;;;;;6.35;100.00;100869.47;5050934;28;20089;-79
2023/12/19 05:37:32;;;;;;;10.10;5.90;;;;;;;6.26;100.00;100872.16;5066818;28;20060;-78
2023/12/19 05:39:58;;;;;;;10.73;6.13;;;;;;;6.20;100.00;100862.59;5063760;28;20021;-80
2023/12/19 05:42:24;;;;;;;13.80;6.32;;;;;;;6.15;100.00;100863.13;5069053;28;20100;-79
2023/12/19 05:44:51;;;;;;;10.70;5.50;;;;;;;6.14;100.00;100861.56;5066689;28;20059;-79
2023/12/19 05:47:18;;;;;;;10.00;5.80;;;;;;;6.08;100.00;100875.50;5067015;28;20040;-79
2023/12/19 05:49:44;;;;;;;10.02;6.15;;;;;;;5.99;100.00;100883.06;5065886;28;20031;-82
2023/12/19 05:52:11;;;;;;;12.77;6.05;;;;;;;5.89;100.00;100878.47;5040897;28;20029;-81
2023/12/19 05:54:37;;;;;;;15.38;5.90;;;;;;;5.74;100.00;100875.22;5061684;28;20025;-81
2023/12/19 05:57:03;;;;;;;11.75;6.22;;;;;;;5.66;100.00;100882.31;5065255;28;20040;-82
2023/12/19 05:59:29;;;;;;;14.20;6.63;;;;;;;5.55;100.00;100878.97;5065195;28;20029;-84
2023/12/19 06:02:00;;;;;;;15.80;7.50;;;;;;;5.43;100.00;100893.84;5060435;28;20055;-83
2023/12/19 06:04:28;;;;;;;14.10;6.50;;;;;;;5.34;100.00;100883.94;5059090;28;20036;-82
2023/12/19 06:06:54;;;;;;;10.90;6.22;;;;;;;5.32;100.00;100892.09;5056843;28;20021;-81
2023/12/19 06:09:19;;;;;;;10.20;5.85;;;;;;;5.26;100.00;100882.50;5055588;28;20155;-77
2023/12/19 06:11:45;;;;;;;11.15;6.43;;;;;;;5.26;100.00;100879.69;5055366;28;20462;-75
2023/12/19 06:14:11;;;;;;;13.50;6.10;;;;;;;5.28;100.00;100876.41;5056658;28;20415;-78
2023/12/19 06:16:37;;;;;;;12.35;6.00;;;;;;;5.18;100.00;100866.94;5056501;28;20474;-79
2023/12/19 06:19:05;;;;;;;10.70;5.43;;;;;;;5.21;100.00;100868.06;5055361;28;20025;-79
2023/12/19 06:21:31;;;;;;;13.38;6.45;;;;;;;5.21;100.00;100860.38;5056165;28;20045;-79
2023/12/19 06:23:57;;;;;;;11.65;6.38;;;;;;;5.17;100.00;100861.69;5056047;28;20084;-77
2023/12/19 06:26:22;;;;;;;12.50;6.30;;;;;;;5.12;100.00;100871.53;5055502;28;20048;-78
2023/12/19 06:28:48;;;;;;;9.27;5.43;;;;;;;5.10;100.00;100878.88;5055435;28;20259;-81
2023/12/19 06:31:14;;;;;;;11.15;5.20;;;;;;;5.12;100.00;100870.72;5055069;28;20029;-82
2023/12/19 06:33:41;;;;;;;9.25;5.40;;;;;;;5.15;100.00;100867.84;5056533;28;20411;-81
2023/12/19 06:36:07;;;;;;;13.32;4.85;;;;;;;5.22;100.00;100878.97;5056613;28;20025;-79
2023/12/19 06:38:33;;;;;;;11.45;4.90;;;;;;;5.27;100.00;100866.31;5056408;28;20025;-80
2023/12/19 06:40:59;;;;;;;15.13;5.78;;;;;;;5.30;100.00;100888.88;5056210;28;20055;-81
2023/12/19 06:43:26;;;;;;;18.60;7.40;;;;;;;5.30;100.00;100879.63;5056067;28;20055;-80
2023/12/19 06:45:52;;;;;;;10.38;5.63;;;;;;;5.28;100.00;100873.56;5056055;28;20112;-81
2023/12/19 06:48:23;;;;;;;7.60;4.38;;;;;;;5.28;100.00;100879.25;5056646;28;20104;-81
2023/12/19 06:50:49;;;;;;;12.00;5.35;;;;;;;5.28;100.00;100884.91;5056714;28;20488;-82
2023/12/19 06:53:14;;;;;;;12.45;5.05;;;;;;;5.29;100.00;100881.66;5056172;28;20021;-82
2023/12/19 06:55:39;;;;;;;7.57;4.45;;;;;;;5.23;100.00;100871.28;5056494;28;20028;-82
2023/12/19 06:58:06;;;;;;;9.35;4.70;;;;;;;5.36;100.00;100867.28;5057331;28;20097;-77
2023/12/19 07:00:32;;;;;;;13.65;5.28;;;;;;;5.40;100.00;100858.69;5056084;28;20032;-79
2023/12/19 07:03:06;;;;;;;9.18;4.28;;;;;;;5.47;100.00;100854.88;5056556;28;20024;-77
2023/12/19 07:05:35;;;;;;;7.28;3.80;;;;;;;5.55;100.00;100853.47;5054855;28;20083;-79
2023/12/19 07:08:01;;;;;;;10.13;4.35;;;;;;;5.61;100.00;100863.00;5055670;28;20017;-80
2023/12/19 07:10:27;;;;;;;8.95;4.57;;;;;;;5.70;100.00;100877.34;5055440;28;20028;-79
2023/12/19 07:12:53;;;;;;;11.18;4.60;;;;;;;5.82;100.00;100862.44;5053371;28;20025;-79
2023/12/19 07:15:19;;;;;;;12.20;4.35;;;;;;;5.94;100.00;100864.56;5054548;28;20040;-79
2023/12/19 07:17:46;;;;;;;9.73;4.13;;;;;;;6.04;100.00;100862.66;5054231;28;20032;-80
2023/12/19 07:20:12;;;;;;;11.38;4.47;;;;;;;6.13;100.00;100863.59;5054659;28;20052;-78
2023/12/19 07:22:37;;;;;;;9.27;5.03;;;;;;;6.21;100.00;100862.16;5055414;28;20040;-78
2023/12/19 07:25:03;;;;;;;11.75;4.43;;;;;;;6.33;100.00;100865.50;5055597;28;20394;-81
2023/12/19 07:27:31;;;;;;;7.55;4.20;;;;;;;6.41;100.00;100852.69;5056059;28;20516;-79
2023/12/19 07:29:58;;;;;;;9.15;4.13;;;;;;;6.48;100.00;100863.84;5054804;28;20049;-80
2023/12/19 07:32:26;;;;;;;9.75;4.95;;;;;;;6.55;100.00;100852.25;5052795;28;20094;-79
2023/12/19 07:34:52;;;;;;;8.35;4.38;;;;;;;6.68;100.00;100845.34;5052814;28;20025;-79
2023/12/19 07:37:18;;;;;;;6.65;4.20;;;;;;;6.82;100.00;100837.66;5053995;28;20524;-79
2023/12/19 07:39:43;;;;;;;11.35;4.72;;;;;;;6.92;100.00;100847.88;5053956;28;20028;-78
2023/12/19 07:42:09;;;;;;;6.43;4.55;;;;;;;7.02;100.00;100846.72;5053823;28;20033;-79
2023/12/19 07:44:34;;;;;;;7.53;3.80;;;;;;;7.16;100.00;100845.47;5053826;28;20047;-79
2023/12/19 07:47:08;;;;;;;10.02;4.40;;;;;;;7.28;100.00;100845.44;5053450;28;20385;-78
2023/12/19 07:49:34;;;;;;;10.13;5.30;;;;;;;7.43;100.00;100846.56;5054633;28;20124;-80
2023/12/19 07:52:00;;;;;;;13.25;5.57;;;;;;;7.51;100.00;100836.53;5054942;28;20522;-77
2023/12/19 07:54:26;;;;;;;9.98;4.43;;;;;;;7.59;100.00;100825.72;5054606;28;20505;-77
2023/12/19 07:56:52;;;;;;;8.35;4.28;;;;;;;7.71;100.00;100829.78;5054823;28;20029;-77
2023/12/19 07:59:19;;;;;;;13.45;5.93;;;;;;;7.84;100.00;100834.16;5054483;28;20043;-79
2023/12/19 08:01:52;;;;;;;9.75;5.47;;;;;;;7.97;100.00;100837.72;5054595;28;20355;-78
2023/12/19 08:04:19;;;;;;;17.00;5.60;;;;;;;8.10;100.00;100825.50;5054757;28;20020;-80
2023/12/19 08:06:44;;;;;;;15.43;5.57;;;;;;;8.23;100.00;100823.41;5053408;28;20062;-79
2023/12/19 08:09:13;;;;;;;25.45;6.65;;;;;;;8.25;100.00;100824.53;5054524;28;20112;-79
2023/12/19 08:11:39;;;;;;;13.32;5.45;;;;;;;8.17;100.00;100831.75;5054790;28;20346;-79
2023/12/19 08:14:07;;;;;;;13.45;6.07;;;;;;;8.00;100.00;100838.88;5054480;28;20484;-79
2023/12/19 08:16:33;;;;;;;21.67;6.53;;;;;;;7.85;100.00;100843.47;5054610;28;20163;-79
2023/12/19 08:19:00;;;;;;;18.35;6.05;;;;;;;7.69;100.00;100830.22;5054467;28;20074;-80
2023/12/19 08:21:28;;;;;;;20.63;6.60;;;;;;;7.60;100.00;100832.19;5054048;28;20052;-80
2023/12/19 08:23:54;;;;;;;12.77;5.55;;;;;;;7.50;100.00;100826.41;5054721;28;20462;-80
2023/12/19 08:26:21;;;;;;;11.75;5.18;;;;;;;7.41;100.00;100812.13;5054241;28;20381;-79
2023/12/19 08:28:48;;;;;;;13.68;5.78;;;;;;;7.39;100.00;100820.28;5054159;28;20112;-77
2023/12/19 08:31:14;;;;;;;16.38;5.60;;;;;;;7.40;100.00;100813.38;5036292;28;20084;-79
2023/12/19 08:33:43;;;;;;;16.55;5.80;;;;;;;7.41;100.00;100823.50;5054132;28;20067;-79
2023/12/19 08:36:10;;;;;;;15.02;6.10;;;;;;;7.44;100.00;100816.06;5053903;28;20028;-78
2023/12/19 08:38:36;;;;;;;15.43;5.50;;;;;;;7.47;100.00;100813.09;5054444;28;20067;-79
2023/12/19 08:41:03;;;;;;;10.30;5.30;;;;;;;7.52;100.00;100806.06;5054140;28;20028;-80
2023/12/19 08:43:29;;;;;;;11.95;5.03;;;;;;;7.66;100.00;100805.56;5054131;28;20429;-79
2023/12/19 08:45:54;;;;;;;14.63;6.45;;;;;;;7.77;100.00;100805.16;5053937;28;20033;-81
2023/12/19 08:48:20;;;;;;;13.95;5.53;;;;;;;7.87;100.00;100810.47;5053783;28;20033;-79
2023/12/19 08:50:47;;;;;;;15.05;6.10;;;;;;;7.90;100.00;100792.47;5053769;28;20462;-80
2023/12/19 08:53:12;;;;;;;16.73;5.95;;;;;;;7.94;100.00;100789.50;5053775;28;20063;-77
2023/12/19 08:55:39;;;;;;;7.95;5.07;;;;;;;8.01;100.00;100783.56;5053930;28;20430;-79
2023/12/19 08:58:07;;;;;;;11.73;5.82;;;;;;;8.09;100.00;100787.72;5052449;28;20530;-78
2023/12/19 09:00:33;;;;;;;11.07;5.03;;;;;;;8.15;100.00;100770.81;5053859;28;20025;-78
2023/12/19 09:02:59;;;;;;;9.63;4.30;;;;;;;8.24;100.00;100759.53;5053553;28;20428;-79
2023/12/19 09:05:26;;;;;;;11.40;4.88;;;;;;;8.30;100.00;100744.22;5052223;28;20074;-81
2023/12/19 09:07:53;;;;;;;12.65;5.00;;;;;;;8.39;100.00;100735.72;5035418;28;20037;-78
2023/12/19 09:10:21;;;;;;;16.55;4.82;;;;;;;8.50;100.00;100728.81;5053594;28;20039;-80
2023/12/19 09:12:46;;;;;;;11.05;5.13;;;;;;;8.61;100.00;100726.31;5052231;28;20017;-79
2023/12/19 09:15:12;;;;;;;13.45;5.05;;;;;;;8.68;100.00;100740.28;5053350;28;20449;-78
2023/12/19 09:17:39;;;;;;;14.05;6.13;;;;;;;8.77;100.00;100737.44;5053219;28;20040;-79
2023/12/19 09:20:07;;;;;;;15.35;6.80;;;;;;;8.83;100.00;100724.19;5051791;28;20037;-79
2023/12/19 09:22:35;;;;;;;13.60;6.40;;;;;;;8.88;100.00;100731.31;5053076;28;20029;-81
2023/12/19 09:25:02;;;;;;;13.10;6.07;;;;;;;8.91;100.00;100727.50;5053397;28;20033;-81
2023/12/19 09:27:28;;;;;;;20.00;10.23;;;;;;;8.90;100.00;100726.75;5052777;28;20466;-78
2023/12/19 09:29:53;;;;;;;18.13;8.85;;;;;;;8.94;100.00;100718.03;5053104;28;20036;-78
2023/12/19 09:32:19;;;;;;;20.95;9.00;;;;;;;8.93;100.00;100728.63;5052829;28;20025;-79
2023/12/19 09:34:45;;;;;;;16.00;7.35;;;;;;;8.95;100.00;100737.53;5051868;28;20453;-80
2023/12/19 09:37:12;;;;;;;15.40;7.57;;;;;;;8.98;100.00;100718.66;5051698;28;20025;-80
2023/12/19 09:39:38;;;;;;;14.40;7.25;;;;;;;9.02;100.00;100707.91;5053427;28;20347;-81
2023/12/19 09:42:17;;;;;;;14.50;6.35;;;;;;;9.06;100.00;100697.94;5052958;28;20043;-80
2023/12/19 09:44:42;;;;;;;14.85;7.25;;;;;;;9.03;100.00;100683.84;5051847;28;20033;-79
2023/12/19 09:47:08;;;;;;;14.50;6.70;;;;;;;9.06;100.00;100674.34;5053101;28;20446;-81
2023/12/19 09:49:39;;;;;;;14.88;6.60;;;;;;;9.16;100.00;100676.72;5051882;28;20032;-78
2023/12/19 09:52:16;;;;;;;12.27;6.60;;;;;;;9.24;100.00;100663.75;5035535;28;20029;-79
2023/12/19 09:54:42;;;;;;;15.20;6.43;;;;;;;9.35;100.00;100668.19;5053106;28;20107;-79
2023/12/19 09:57:08;;;;;;;13.05;5.38;;;;;;;9.41;100.00;100658.50;5053152;28;20032;-79
2023/12/19 09:59:36;;;;;;;11.88;5.35;;;;;;;9.45;100.00;100666.88;5051407;28;20067;-81
2023/12/19 10:02:04;;;;;;;11.90;6.32;;;;;;;9.44;100.00;100671.03;5051021;28;20049;-79
2023/12/19 10:04:31;;;;;;;10.27;5.63;;;;;;;9.46;100.00;100668.47;5052883;28;20051;-80
2023/12/19 10:07:02;;;;;;;10.32;5.47;;;;;;;9.48;100.00;100655.34;5052249;28;20040;-80
2023/12/19 10:09:28;;;;;;;12.18;5.47;;;;;;;9.65;100.00;100670.03;5034856;28;20025;-80
2023/12/19 10:12:12;;;;;;;12.75;5.70;;;;;;;9.89;100.00;100658.78;5052016;28;20037;-80
2023/12/19 10:14:38;;;;;;;12.43;5.75;;;;;;;10.10;100.00;100644.28;5050702;28;20486;-79
2023/12/19 10:17:18;;;;;;;11.15;6.00;;;;;;;10.40;100.00;100638.75;5051692;28;20114;-81
2023/12/19 10:19:44;;;;;;;12.32;5.88;;;;;;;10.59;100.00;100631.66;5052056;28;20098;-78
2023/12/19 10:22:14;;;;;;;9.55;5.28;;;;;;;10.77;100.00;100620.13;5051907;28;20083;-79
2023/12/19 10:24:41;;;;;;;11.75;5.90;;;;;;;11.02;100.00;100626.63;5050613;28;20037;-79
2023/12/19 10:27:07;;;;;;;12.45;6.03;;;;;;;11.16;100.00;100618.13;5052038;28;20039;-78
2023/12/19 10:29:36;;;;;;;10.82;5.78;;;;;;;11.32;100.00;100622.59;5050975;28;20044;-79
2023/12/19 10:32:21;;;;;;;14.60;6.22;;;;;;;11.44;100.00;100607.22;5052553;28;20021;-80
2023/12/19 10:34:57;;;;;;;10.68;5.72;;;;;;;11.44;100.00;100604.34;5052502;28;20039;-80
2023/12/19 10:37:35;;;;;;;19.80;7.15;;;;;;;11.48;100.00;100607.81;5052374;28;20093;-79
2023/12/19 10:40:19;;;;;;;12.98;6.32;;;;;;;11.48;100.00;100604.94;5051581;28;20467;-78
2023/12/19 10:42:58;;;;;;;18.60;6.82;;;;;;;11.51;100.00;100595.38;5055516;28;20446;-80
2023/12/19 10:45:28;;;;;;;13.57;6.80;;;;;;;11.52;100.00;100582.63;5054596;28;20040;-79
2023/12/19 10:47:54;;;;;;;13.30;6.22;;;;;;;11.53;100.00;100584.22;5055785;28;20025;-79
2023/12/19 10:50:21;;;;;;;15.57;6.60;;;;;;;11.61;100.00;100581.75;5056356;28;20119;-80
2023/12/19 10:52:50;;;;;;;13.18;6.40;;;;;;;11.71;100.00;100586.09;5055770;28;20032;-80
2023/12/19 10:55:18;;;;;;;12.32;5.78;;;;;;;11.74;100.00;100579.38;5054329;28;20064;-81
2023/12/19 10:57:52;;;;;;;11.43;5.20;;;;;;;11.73;100.00;100564.28;5055418;28;20426;-80
2023/12/19 11:00:21;;;;;;;9.65;5.22;;;;;;;11.78;100.00;100560.72;5055607;28;20024;-80
2023/12/19 11:03:11;;;;;;;9.70;5.55;;;;;;;11.82;100.00;100555.56;5055360;28;20494;-80
2023/12/19 11:05:47;;;;;;;13.30;5.15;;;;;;;11.82;100.00;100546.97;5054161;28;20035;-82
2023/12/19 11:08:17;;;;;;;12.65;7.07;;;;;;;11.83;100.00;100534.25;5054175;28;20035;-80
2023/12/19 11:11:12;;;;;;;10.80;6.07;;;;;;;11.86;100.00;100534.56;5055611;28;20087;-81
2023/12/19 11:13:41;;;;;;;13.50;6.70;;;;;;;11.91;100.00;100525.25;5055799;28;20025;-80